Time;durP1;ratioP1;P1;durP2;ratioP2;P2;SDS_P1;SDS_P2;PMS_P1;PMS_P2;Temp;Humidity;BMP_temperature;BMP_pressure;BME280_temperature;BME280_humidity;BME280_pressure;Samples;Min_cycle;Max_cycle;Signal;HPM_P1;HPM_P2
2021/06/23 00:01:10;;;;;;;2.00;1.87;;;;;;;13.43;78.52;100773.69;5013414;28;20260;-72
2021/06/23 00:03:35;;;;;;;3.40;2.50;;;;;;;13.61;78.05;100773.38;5013582;28;20173;-72
2021/06/23 00:06:02;;;;;;;1.93;1.83;;;;;;;13.36;78.63;100764.00;4992626;28;20209;-72
2021/06/23 00:08:27;;;;;;;3.10;1.93;;;;;;;13.32;78.65;100767.72;4993739;28;20184;-72
2021/06/23 00:10:53;;;;;;;1.83;1.73;;;;;;;13.33;78.95;100766.59;4993692;28;20224;-72
2021/06/23 00:13:20;;;;;;;2.33;2.13;;;;;;;13.26;78.62;100761.56;4992433;28;20296;-72
2021/06/23 00:15:45;;;;;;;2.03;1.70;;;;;;;13.12;79.50;100758.13;4993636;28;20181;-72
2021/06/23 00:18:11;;;;;;;2.97;2.50;;;;;;;13.09;79.58;100754.09;4994200;28;20235;-72
2021/06/23 00:20:37;;;;;;;2.00;1.90;;;;;;;13.07;79.34;100756.34;4993520;28;20178;-72
2021/06/23 00:23:03;;;;;;;2.27;1.73;;;;;;;13.02;79.68;100761.19;4993718;28;20625;-71
2021/06/23 00:25:29;;;;;;;2.80;1.80;;;;;;;13.11;79.85;100762.81;4993844;28;20743;-71
2021/06/23 00:27:55;;;;;;;3.07;2.13;;;;;;;13.14;79.35;100774.28;4992204;28;20561;-73
2021/06/23 00:30:21;;;;;;;4.63;1.50;;;;;;;13.46;79.93;100778.56;4992723;28;20267;-73
2021/06/23 00:32:48;;;;;;;2.87;2.60;;;;;;;13.67;79.26;100788.56;4992906;28;20200;-72
2021/06/23 00:35:14;;;;;;;1.70;1.60;;;;;;;13.46;77.88;100789.53;4992748;28;20663;-72
2021/06/23 00:37:39;;;;;;;2.17;1.97;;;;;;;13.70;78.38;100793.38;4992757;28;20188;-72
2021/06/23 00:40:06;;;;;;;1.40;1.30;;;;;;;13.61;78.20;100787.13;4992754;28;20243;-72
2021/06/23 00:42:34;;;;;;;2.03;1.90;;;;;;;13.55;77.00;100791.13;4992572;28;20189;-72
2021/06/23 00:45:05;;;;;;;1.77;1.67;;;;;;;13.62;76.67;100801.66;4992561;28;20605;-72
2021/06/23 00:47:31;;;;;;;2.60;1.90;;;;;;;13.50;76.91;100809.72;4992415;28;20606;-72
2021/06/23 00:49:58;;;;;;;2.20;2.00;;;;;;;13.59;77.25;100807.75;4992235;28;20178;-72
2021/06/23 00:52:23;;;;;;;3.13;1.93;;;;;;;13.64;76.37;100802.94;4992478;28;20181;-72
2021/06/23 00:54:51;;;;;;;2.00;1.90;;;;;;;13.77;77.14;100806.66;4992318;28;20308;-73
2021/06/23 00:57:18;;;;;;;1.73;1.63;;;;;;;13.74;76.59;100812.75;4992401;28;20178;-73
2021/06/23 00:59:44;;;;;;;3.67;1.97;;;;;;;13.51;76.28;100814.88;4991961;28;20181;-72
2021/06/23 01:02:12;;;;;;;3.83;2.60;;;;;;;13.60;76.34;100812.97;4992322;28;20174;-72
2021/06/23 01:04:37;;;;;;;4.80;2.37;;;;;;;13.48;75.77;100829.25;4992251;28;20544;-72
2021/06/23 01:07:03;;;;;;;2.27;2.17;;;;;;;13.31;76.62;100827.28;4992268;28;20177;-72
2021/06/23 01:09:29;;;;;;;5.20;2.50;;;;;;;13.45;77.09;100821.63;4991881;28;20184;-72
2021/06/23 01:12:14;;;;;;;2.83;2.63;;;;;;;13.27;77.15;100820.00;4992187;28;20188;-73
2021/06/23 01:14:42;;;;;;;2.20;2.00;;;;;;;13.07;77.15;100818.66;4991865;28;20224;-72
2021/06/23 01:17:08;;;;;;;2.57;2.33;;;;;;;12.95;77.99;100821.19;4991959;28;20312;-72
2021/06/23 01:19:37;;;;;;;4.20;2.03;;;;;;;13.08;77.91;100817.50;4991710;28;20173;-72
2021/06/23 01:22:03;;;;;;;2.80;2.30;;;;;;;13.04;77.96;100825.59;4991846;28;20177;-72
2021/06/23 01:24:30;;;;;;;3.93;2.13;;;;;;;12.95;78.37;100826.66;4991805;28;20173;-72
2021/06/23 01:26:56;;;;;;;3.20;2.80;;;;;;;13.00;78.12;100826.50;4991877;28;20173;-72
2021/06/23 01:29:21;;;;;;;2.50;2.30;;;;;;;13.11;77.93;100825.09;4990201;28;20180;-72
2021/06/23 01:31:46;;;;;;;2.00;1.90;;;;;;;13.06;77.73;100831.56;4991794;28;20204;-72
2021/06/23 01:34:12;;;;;;;3.07;2.33;;;;;;;13.04;77.49;100827.50;4991721;28;20237;-72
2021/06/23 01:36:37;;;;;;;3.23;2.20;;;;;;;12.99;78.06;100831.19;4991721;28;20268;-72
2021/06/23 01:39:03;;;;;;;2.50;2.30;;;;;;;13.01;77.82;100828.94;4991370;28;20174;-72
2021/06/23 01:41:28;;;;;;;4.33;2.37;;;;;;;12.96;78.46;100831.84;4991470;28;20189;-72
2021/06/23 01:43:53;;;;;;;2.07;1.97;;;;;;;12.90;78.74;100835.88;4991733;28;20181;-72
2021/06/23 01:46:19;;;;;;;2.27;2.17;;;;;;;12.87;78.52;100838.41;4991528;28;20541;-72
2021/06/23 01:48:44;;;;;;;3.63;2.40;;;;;;;12.90;79.28;100833.13;4991016;28;20193;-72
2021/06/23 01:51:10;;;;;;;2.50;2.30;;;;;;;12.98;78.91;100828.78;4991389;28;20181;-72
2021/06/23 01:53:36;;;;;;;2.80;2.60;;;;;;;13.06;79.01;100826.06;4991402;28;20263;-73
2021/06/23 01:56:03;;;;;;;5.87;2.73;;;;;;;13.16;79.02;100832.38;4991404;28;20203;-72
2021/06/23 01:58:28;;;;;;;8.57;2.63;;;;;;;13.13;78.27;100841.25;4991434;28;20181;-72
2021/06/23 02:01:03;;;;;;;2.30;2.10;;;;;;;13.09;78.95;100824.63;4991175;28;20276;-73
2021/06/23 02:04:01;;;;;;;5.07;2.40;;;;;;;13.00;79.19;100827.31;4991407;28;20176;-73
2021/06/23 02:07:14;;;;;;;6.33;2.73;;;;;;;12.91;79.44;100826.50;4986321;28;20232;-72
2021/06/23 02:10:04;;;;;;;1.83;1.73;;;;;;;12.87;79.57;100820.03;4991002;28;20177;-73
2021/06/23 02:12:29;;;;;;;4.17;3.57;;;;;;;12.92;79.53;100825.38;4991359;28;20173;-73
2021/06/23 02:14:59;;;;;;;1.87;1.70;;;;;;;13.27;79.75;100833.72;4991313;28;20613;-72
2021/06/23 02:17:28;;;;;;;1.83;1.73;;;;;;;13.13;78.28;100827.53;4991246;28;20189;-72
2021/06/23 02:19:55;;;;;;;2.20;1.90;;;;;;;13.32;78.65;100842.63;4991376;28;20576;-72
2021/06/23 02:22:26;;;;;;;2.43;2.23;;;;;;;13.21;77.99;100833.06;5006836;28;20197;-72
2021/06/23 02:24:55;;;;;;;3.00;2.33;;;;;;;13.30;78.20;100831.13;4989327;28;20211;-73
2021/06/23 02:27:22;;;;;;;3.47;2.47;;;;;;;13.26;78.08;100829.38;4990048;28;20196;-73
2021/06/23 02:29:49;;;;;;;2.40;2.20;;;;;;;13.50;77.93;100824.25;4990962;28;20169;-73
2021/06/23 02:32:18;;;;;;;2.77;2.00;;;;;;;13.65;78.01;100829.25;4991427;28;20653;-73
2021/06/23 02:34:48;;;;;;;2.17;1.97;;;;;;;13.81;77.79;100831.53;4991330;28;20683;-72
2021/06/23 02:37:14;;;;;;;2.20;2.00;;;;;;;13.49;75.76;100839.09;4991429;28;20161;-74
2021/06/23 02:39:41;;;;;;;1.87;1.77;;;;;;;13.33;76.40;100837.94;4991342;28;20256;-74
2021/06/23 02:42:07;;;;;;;2.70;1.80;;;;;;;13.47;77.49;100841.38;4991318;28;20186;-71
2021/06/23 02:44:33;;;;;;;2.10;1.70;;;;;;;13.48;76.66;100834.75;4991388;28;20539;-72
2021/06/23 02:46:59;;;;;;;1.73;1.63;;;;;;;13.46;76.88;100826.03;4991351;28;20169;-72
2021/06/23 02:49:25;;;;;;;2.53;2.03;;;;;;;13.34;77.89;100832.13;4990956;28;20272;-72
2021/06/23 02:51:52;;;;;;;2.70;2.20;;;;;;;13.55;77.62;100826.81;4991306;28;20373;-72
2021/06/23 02:54:18;;;;;;;2.40;1.90;;;;;;;13.71;77.80;100818.91;4991140;28;20295;-72
2021/06/23 02:56:44;;;;;;;2.00;1.90;;;;;;;13.63;77.14;100806.81;4991256;28;20170;-72
2021/06/23 02:59:10;;;;;;;2.00;1.63;;;;;;;13.78;77.33;100808.25;4991032;28;20173;-72
2021/06/23 03:01:35;;;;;;;3.23;2.27;;;;;;;13.84;77.33;100817.13;4991188;28;20181;-71
2021/06/23 03:04:01;;;;;;;3.37;2.17;;;;;;;13.66;77.46;100821.81;4991086;28;20305;-74
2021/06/23 03:06:26;;;;;;;1.80;1.70;;;;;;;13.52;78.42;100835.72;4991222;28;20173;-72
2021/06/23 03:08:52;;;;;;;5.67;2.00;;;;;;;13.43;79.26;100843.09;4991034;28;20224;-72
2021/06/23 03:11:17;;;;;;;1.90;1.80;;;;;;;13.28;80.00;100838.06;4991121;28;20636;-72
2021/06/23 03:13:42;;;;;;;1.97;1.87;;;;;;;13.11;81.20;100845.13;4989713;28;20197;-72
2021/06/23 03:16:08;;;;;;;2.30;2.10;;;;;;;13.04;81.45;100847.53;4991112;28;20177;-72
2021/06/23 03:18:33;;;;;;;3.53;2.43;;;;;;;13.01;83.32;100841.84;4990930;28;20177;-72
2021/06/23 03:21:04;;;;;;;2.60;2.20;;;;;;;12.95;83.39;100832.16;4991251;28;20174;-72
2021/06/23 03:23:30;;;;;;;2.90;2.57;;;;;;;13.00;83.83;100832.00;4990868;28;20635;-72
2021/06/23 03:25:56;;;;;;;2.83;2.43;;;;;;;13.01;83.38;100852.81;4990865;28;20182;-72
2021/06/23 03:28:22;;;;;;;2.80;2.60;;;;;;;13.04;83.45;100854.94;4990920;28;20594;-72
2021/06/23 03:30:48;;;;;;;4.90;2.80;;;;;;;12.99;83.96;100846.84;4989455;28;20189;-74
2021/06/23 03:33:13;;;;;;;2.00;1.90;;;;;;;12.96;84.21;100856.53;4990861;28;20170;-74
2021/06/23 03:35:38;;;;;;;4.53;3.23;;;;;;;13.01;84.93;100861.03;4990861;28;20583;-74
2021/06/23 03:38:04;;;;;;;5.30;2.37;;;;;;;13.05;84.71;100865.59;4990895;28;20176;-74
2021/06/23 03:40:29;;;;;;;2.83;2.63;;;;;;;13.14;84.81;100865.59;4989457;28;20625;-74
2021/06/23 03:42:55;;;;;;;3.07;2.53;;;;;;;13.19;83.92;100859.22;4994198;28;20299;-74
2021/06/23 03:45:20;;;;;;;2.60;2.40;;;;;;;13.19;83.62;100856.47;4994191;28;20189;-72
2021/06/23 03:47:46;;;;;;;4.87;2.57;;;;;;;13.19;83.33;100864.72;4993992;28;20177;-72
2021/06/23 03:50:14;;;;;;;2.33;2.23;;;;;;;13.20;83.55;100878.09;4993967;28;20173;-73
2021/06/23 03:52:40;;;;;;;4.23;2.50;;;;;;;13.21;83.65;100870.69;4994030;28;20563;-71
2021/06/23 03:55:09;;;;;;;5.67;2.80;;;;;;;13.21;84.87;100889.88;4993918;28;20209;-73
2021/06/23 03:57:34;;;;;;;3.10;2.90;;;;;;;13.17;85.41;100880.66;4994213;28;20223;-74
2021/06/23 04:00:00;;;;;;;2.40;2.23;;;;;;;13.25;85.41;100877.13;4993837;28;20185;-74
2021/06/23 04:02:25;;;;;;;2.20;2.10;;;;;;;13.20;84.65;100883.59;4994011;28;20185;-73
2021/06/23 04:04:57;;;;;;;3.10;2.90;;;;;;;13.16;85.21;100885.31;4993804;28;20188;-74
2021/06/23 04:07:22;;;;;;;3.67;2.83;;;;;;;13.28;85.45;100884.72;4993769;28;20216;-72
2021/06/23 04:09:48;;;;;;;3.70;2.60;;;;;;;13.40;85.01;100887.66;4993774;28;20691;-72
2021/06/23 04:12:13;;;;;;;2.47;2.27;;;;;;;13.51;84.96;100891.75;4993812;28;20691;-72
2021/06/23 04:14:39;;;;;;;2.90;2.30;;;;;;;13.52;84.70;100895.28;4993584;28;20255;-72
2021/06/23 04:17:04;;;;;;;2.70;2.60;;;;;;;13.37;83.10;100896.56;4993777;28;20177;-74
2021/06/23 04:19:30;;;;;;;3.13;2.67;;;;;;;13.29;82.96;100900.06;4994104;28;20255;-73
2021/06/23 04:21:56;;;;;;;4.03;2.93;;;;;;;13.25;83.06;100888.94;4993582;28;20177;-73
2021/06/23 04:24:21;;;;;;;2.67;2.47;;;;;;;13.25;83.82;100888.94;4993502;28;20180;-74
2021/06/23 04:26:47;;;;;;;2.87;2.63;;;;;;;13.34;84.62;100887.03;4992219;28;20193;-74
2021/06/23 04:29:13;;;;;;;3.03;2.50;;;;;;;13.43;84.42;100892.53;4993624;28;20304;-74
2021/06/23 04:31:39;;;;;;;3.50;2.80;;;;;;;13.44;83.40;100887.84;4993388;28;20173;-72
2021/06/23 04:34:05;;;;;;;2.37;2.20;;;;;;;13.31;82.04;100882.19;4993294;28;20664;-74
2021/06/23 04:36:30;;;;;;;2.43;2.20;;;;;;;13.29;82.69;100883.59;4993391;28;20185;-72
2021/06/23 04:38:55;;;;;;;2.83;2.60;;;;;;;13.28;83.44;100891.03;4993071;28;20186;-73
2021/06/23 04:41:21;;;;;;;2.43;2.23;;;;;;;13.22;83.82;100891.50;4993189;28;20185;-73
2021/06/23 04:43:46;;;;;;;3.57;2.63;;;;;;;13.23;85.21;100895.88;4993319;28;20185;-74
2021/06/23 04:46:11;;;;;;;3.07;2.57;;;;;;;13.25;85.44;100899.09;4991944;28;20173;-74
2021/06/23 04:48:37;;;;;;;3.67;2.30;;;;;;;13.26;85.73;100896.03;4992840;28;20208;-74
2021/06/23 04:51:02;;;;;;;2.67;2.47;;;;;;;13.22;85.75;100897.81;4992973;28;20717;-74
2021/06/23 04:53:28;;;;;;;8.63;2.10;;;;;;;13.20;86.25;100896.50;4992472;28;20207;-74
2021/06/23 04:55:54;;;;;;;3.33;2.90;;;;;;;13.18;86.09;100885.84;4993025;28;20272;-72
2021/06/23 04:58:20;;;;;;;4.17;2.70;;;;;;;13.24;87.51;100892.00;4992855;28;20173;-72
2021/06/23 05:00:46;;;;;;;2.80;2.60;;;;;;;13.26;87.47;100895.22;4993057;28;20182;-72
2021/06/23 05:03:11;;;;;;;2.37;2.10;;;;;;;13.32;88.01;100897.50;4992875;28;20644;-72
2021/06/23 05:05:36;;;;;;;3.30;3.00;;;;;;;13.28;87.11;100898.44;4992787;28;20668;-72
2021/06/23 05:08:02;;;;;;;3.07;2.87;;;;;;;13.30;87.68;100902.50;4992693;28;20170;-72
2021/06/23 05:10:27;;;;;;;2.60;2.40;;;;;;;13.29;87.90;100891.84;4992698;28;20200;-73
2021/06/23 05:12:53;;;;;;;2.53;2.30;;;;;;;13.34;87.71;100905.44;4992672;28;20598;-71
2021/06/23 05:15:18;;;;;;;2.50;2.30;;;;;;;13.36;87.78;100906.72;4992482;28;20564;-72
2021/06/23 05:17:44;;;;;;;2.83;2.63;;;;;;;13.24;86.00;100897.47;4986338;28;20264;-73
2021/06/23 05:20:10;;;;;;;3.43;3.13;;;;;;;13.06;85.53;100902.88;4992132;28;20236;-73
2021/06/23 05:22:35;;;;;;;2.70;2.50;;;;;;;13.26;86.06;100900.72;4990503;28;20240;-73
2021/06/23 05:25:02;;;;;;;3.80;3.10;;;;;;;13.06;85.19;100905.63;4991466;28;20644;-72
2021/06/23 05:27:28;;;;;;;3.07;2.77;;;;;;;13.21;85.14;100906.34;4990915;28;20173;-72
2021/06/23 05:29:53;;;;;;;2.70;2.50;;;;;;;13.25;84.09;100902.66;4990787;28;20247;-73
2021/06/23 05:32:18;;;;;;;3.10;2.87;;;;;;;13.25;84.53;100908.13;4991591;28;20177;-73
2021/06/23 05:34:44;;;;;;;3.70;2.27;;;;;;;13.22;83.09;100905.22;4991652;28;20579;-72
2021/06/23 05:37:09;;;;;;;3.47;2.23;;;;;;;13.43;82.90;100909.00;4992057;28;20529;-73
2021/06/23 05:39:34;;;;;;;3.73;1.73;;;;;;;13.39;80.36;100906.06;4989021;28;20185;-72
2021/06/23 05:42:00;;;;;;;2.30;2.07;;;;;;;13.39;79.93;100900.59;4992077;28;20644;-73
2021/06/23 05:44:26;;;;;;;5.90;2.17;;;;;;;13.31;80.82;100908.81;4989363;28;20233;-73
2021/06/23 05:46:51;;;;;;;2.73;1.60;;;;;;;13.29;80.66;100903.63;4992225;28;20258;-73
2021/06/23 05:49:16;;;;;;;2.23;1.50;;;;;;;13.21;79.61;100901.66;4989808;28;20269;-73
2021/06/23 05:51:42;;;;;;;2.37;1.60;;;;;;;13.34;79.16;100894.44;4989206;28;20177;-73
2021/06/23 05:54:08;;;;;;;1.83;1.73;;;;;;;13.21;79.93;100901.66;4987687;28;20293;-73
2021/06/23 05:56:33;;;;;;;4.53;2.87;;;;;;;13.28;79.13;100906.69;4986257;28;20641;-73
2021/06/23 05:58:59;;;;;;;2.93;2.20;;;;;;;13.35;79.50;100904.28;4983257;28;20511;-73
2021/06/23 06:01:24;;;;;;;4.10;1.80;;;;;;;13.43;78.33;100910.91;4986012;28;20204;-73
2021/06/23 06:03:50;;;;;;;1.63;1.53;;;;;;;13.65;79.54;100916.31;4987988;28;20548;-73
2021/06/23 06:06:16;;;;;;;2.37;2.17;;;;;;;13.72;79.02;100927.63;4989540;28;20269;-73
2021/06/23 06:08:41;;;;;;;3.27;2.20;;;;;;;13.65;78.30;100921.81;4991577;28;20185;-73
2021/06/23 06:11:06;;;;;;;1.77;1.20;;;;;;;13.63;77.92;100921.31;4988637;28;20196;-72
2021/06/23 06:13:32;;;;;;;3.90;1.70;;;;;;;13.61;77.91;100926.34;4987145;28;20656;-73
2021/06/23 06:15:57;;;;;;;1.27;1.27;;;;;;;13.66;77.35;100935.22;4988127;28;20361;-72
2021/06/23 06:18:26;;;;;;;3.67;1.97;;;;;;;13.93;78.56;100925.09;4990135;28;20181;-72
2021/06/23 06:20:57;;;;;;;2.57;1.20;;;;;;;13.84;77.78;100940.72;4977720;28;20189;-74
2021/06/23 06:23:23;;;;;;;2.27;1.90;;;;;;;13.70;77.41;100932.63;4987957;28;20181;-74
2021/06/23 06:25:48;;;;;;;2.07;1.30;;;;;;;13.78;77.30;100937.34;4988877;28;20190;-74
2021/06/23 06:28:13;;;;;;;6.13;1.90;;;;;;;13.99;77.92;100934.78;4991351;28;20231;-74
2021/06/23 06:30:39;;;;;;;1.63;1.30;;;;;;;14.15;77.88;100949.66;4990028;28;20276;-74
2021/06/23 06:33:04;;;;;;;2.37;1.27;;;;;;;14.09;74.30;100941.91;4990384;28;20268;-74
2021/06/23 06:35:30;;;;;;;2.20;2.00;;;;;;;13.87;75.79;100943.63;4989292;28;20584;-74
2021/06/23 06:37:56;;;;;;;1.73;1.20;;;;;;;14.07;74.71;100942.22;4984261;28;20186;-74
2021/06/23 06:40:22;;;;;;;2.10;1.20;;;;;;;13.87;76.41;100937.34;4987089;28;20189;-74
2021/06/23 06:42:47;;;;;;;2.67;1.40;;;;;;;14.02;77.43;100945.09;4989888;28;20204;-73
2021/06/23 06:45:12;;;;;;;3.33;2.30;;;;;;;14.30;77.58;100949.16;4991386;28;20257;-73
2021/06/23 06:47:38;;;;;;;1.77;1.07;;;;;;;14.49;76.85;100945.31;4989339;28;20185;-74
2021/06/23 06:50:04;;;;;;;2.30;1.37;;;;;;;14.42;75.68;100948.50;4990968;28;20188;-74
2021/06/23 06:52:29;;;;;;;1.30;1.30;;;;;;;14.10;74.46;100954.50;4989992;28;20640;-74
2021/06/23 06:54:55;;;;;;;1.23;0.90;;;;;;;13.77;72.14;100951.41;4990768;28;20209;-74
2021/06/23 06:57:20;;;;;;;1.20;1.07;;;;;;;13.90;72.38;100959.50;4990170;28;20184;-74
2021/06/23 06:59:45;;;;;;;0.73;0.73;;;;;;;13.73;72.70;100961.38;4986275;28;20280;-74
2021/06/23 07:02:11;;;;;;;2.27;1.97;;;;;;;13.73;73.51;100953.16;4988233;28;20193;-75
2021/06/23 07:04:36;;;;;;;5.10;1.10;;;;;;;13.75;74.39;100948.16;4988504;28;20212;-74
2021/06/23 07:07:01;;;;;;;2.47;1.87;;;;;;;13.64;75.30;100951.19;4991148;28;20547;-74
2021/06/23 07:09:27;;;;;;;6.47;1.60;;;;;;;13.80;76.25;100948.00;4990848;28;20260;-74
2021/06/23 07:11:52;;;;;;;1.30;1.20;;;;;;;13.90;75.62;100947.72;4991087;28;20185;-74
2021/06/23 07:14:23;;;;;;;2.37;1.60;;;;;;;13.98;75.92;100952.38;4991062;28;20212;-74
2021/06/23 07:16:49;;;;;;;1.57;1.47;;;;;;;14.30;76.69;100949.16;4994721;28;20214;-74
2021/06/23 07:19:14;;;;;;;2.47;1.40;;;;;;;14.40;74.34;100956.28;4994690;28;20219;-74
2021/06/23 07:21:41;;;;;;;1.50;1.37;;;;;;;14.17;73.94;100963.88;4993774;28;20181;-74
2021/06/23 07:24:07;;;;;;;1.73;0.93;;;;;;;14.23;74.27;100959.84;4994673;28;20627;-74
2021/06/23 07:26:32;;;;;;;2.67;1.40;;;;;;;14.40;73.76;100961.78;4993477;28;20264;-75
2021/06/23 07:29:01;;;;;;;1.80;1.00;;;;;;;14.55;74.31;100953.06;4994440;28;20655;-74
2021/06/23 07:34:19;;;;;;;2.63;1.27;;;;;;;14.00;74.58;100955.63;4994676;28;20554;-74
2021/06/23 07:36:48;;;;;;;1.90;1.80;;;;;;;14.24;74.32;100952.41;4992152;28;20624;-73
2021/06/23 07:39:16;;;;;;;3.53;1.60;;;;;;;14.56;74.25;100949.16;4989108;28;20585;-74
2021/06/23 07:41:44;;;;;;;2.20;2.07;;;;;;;14.58;72.99;100948.84;4987423;28;20255;-74
2021/06/23 07:44:12;;;;;;;5.20;1.73;;;;;;;14.25;72.79;100965.81;4992470;28;20193;-74
2021/06/23 07:46:46;;;;;;;4.20;1.77;;;;;;;14.28;73.08;100959.66;4994187;28;20200;-74
2021/06/23 07:49:13;;;;;;;4.47;1.87;;;;;;;14.21;73.53;100953.88;4991627;28;20195;-74
2021/06/23 07:52:00;;;;;;;4.03;1.43;;;;;;;14.20;74.02;100957.75;4993924;28;20641;-74
2021/06/23 08:01:19;;;;;;;1.47;1.23;;;;;;;14.66;73.16;100964.53;4994347;28;20181;-74
2021/06/23 08:10:29;;;;;;;1.10;1.10;;;;;;;14.57;69.60;100967.28;4992144;28;20254;-74
2021/06/23 08:12:55;;;;;;;1.73;1.13;;;;;;;14.61;69.36;100961.13;4993260;28;20180;-74
2021/06/23 08:15:24;;;;;;;4.90;1.33;;;;;;;14.53;69.03;100963.56;4991147;28;20565;-74
2021/06/23 08:17:50;;;;;;;3.67;1.27;;;;;;;14.56;70.18;100959.38;4995175;28;20196;-74
2021/06/23 08:20:16;;;;;;;1.33;1.30;;;;;;;14.83;71.82;100967.25;4993626;28;20629;-74
2021/06/23 08:22:41;;;;;;;1.67;1.03;;;;;;;14.93;71.16;100971.59;4993059;28;20193;-74
2021/06/23 08:25:07;;;;;;;1.73;1.43;;;;;;;15.26;70.64;100969.06;4991881;28;20193;-74
2021/06/23 08:27:33;;;;;;;2.20;0.93;;;;;;;15.40;70.28;100969.66;4992264;28;20231;-74
2021/06/23 08:29:58;;;;;;;4.77;1.93;;;;;;;15.26;69.33;100971.81;4987671;28;20281;-74
2021/06/23 08:32:24;;;;;;;2.00;1.00;;;;;;;15.61;69.84;100977.19;4991794;28;20204;-74
2021/06/23 08:34:49;;;;;;;3.63;1.03;;;;;;;15.61;66.40;100971.69;4992966;28;20201;-74
2021/06/23 08:37:14;;;;;;;2.50;1.43;;;;;;;15.81;67.82;100970.94;4991669;28;20279;-72
2021/06/23 08:39:40;;;;;;;1.60;1.20;;;;;;;15.99;67.42;100969.66;4991456;28;20169;-74
2021/06/23 08:42:06;;;;;;;4.40;0.90;;;;;;;15.72;66.58;100973.72;4990753;28;20266;-72
2021/06/23 08:44:31;;;;;;;2.00;1.73;;;;;;;15.46;68.04;100981.28;4992770;28;20185;-74
2021/06/23 08:46:59;;;;;;;6.77;1.13;;;;;;;15.29;69.06;100975.84;4988809;28;20181;-74
2021/06/23 08:49:26;;;;;;;2.03;1.83;;;;;;;15.39;68.41;100959.78;4982091;28;20889;-74
2021/06/23 08:51:53;;;;;;;1.40;1.30;;;;;;;15.39;68.41;100976.28;4990665;28;20293;-73
2021/06/23 08:54:19;;;;;;;4.23;1.30;;;;;;;15.11;70.13;100964.09;4992632;28;20284;-74
2021/06/23 08:56:44;;;;;;;2.57;1.80;;;;;;;15.50;70.84;100956.66;4991448;28;20272;-74
2021/06/23 08:59:09;;;;;;;2.40;1.50;;;;;;;15.46;70.77;100962.81;4992437;28;20248;-74
2021/06/23 09:01:35;;;;;;;1.97;1.20;;;;;;;15.78;71.84;100963.34;4988233;28;20189;-74
2021/06/23 09:04:08;;;;;;;4.37;1.27;;;;;;;15.93;69.58;100971.03;4992249;28;20184;-74
2021/06/23 09:06:42;;;;;;;1.50;1.30;;;;;;;16.28;69.23;100968.00;4990513;28;20582;-73
2021/06/23 09:09:17;;;;;;;2.37;1.40;;;;;;;16.57;68.41;100967.09;4991958;28;20195;-74
2021/06/23 09:11:43;;;;;;;3.20;1.40;;;;;;;16.50;67.11;100966.84;4991661;28;20187;-74
2021/06/23 09:14:12;;;;;;;2.77;1.40;;;;;;;16.10;68.49;100966.53;4991353;28;20270;-74
2021/06/23 09:17:07;;;;;;;1.43;1.30;;;;;;;16.23;68.16;100970.97;4992217;28;20185;-74
2021/06/23 09:19:35;;;;;;;5.13;1.40;;;;;;;16.23;66.97;100966.25;4989203;28;20598;-74
2021/06/23 09:22:01;;;;;;;2.77;1.73;;;;;;;16.59;68.52;100967.56;4985775;28;20184;-74
2021/06/23 09:24:44;;;;;;;3.57;1.60;;;;;;;16.66;66.25;100965.06;4988736;28;20185;-74
2021/06/23 09:27:25;;;;;;;1.73;1.40;;;;;;;16.29;64.95;100972.38;4986781;28;20212;-74
2021/06/23 09:29:51;;;;;;;3.70;1.30;;;;;;;16.32;67.13;100974.44;4982850;28;20248;-74
2021/06/23 09:32:18;;;;;;;1.00;1.00;;;;;;;16.43;67.37;100975.66;4990224;28;20185;-74
2021/06/23 09:34:46;;;;;;;1.80;1.33;;;;;;;16.57;66.80;100967.09;4985024;28;20213;-74
2021/06/23 09:37:30;;;;;;;1.67;1.57;;;;;;;16.15;66.72;100969.88;4988043;28;20240;-72
2021/06/23 09:40:15;;;;;;;2.47;1.20;;;;;;;16.44;66.50;100979.22;4984361;28;20636;-74
2021/06/23 09:42:45;;;;;;;4.33;1.50;;;;;;;16.54;66.63;100974.09;4981738;28;20190;-74
2021/06/23 09:45:13;;;;;;;3.67;1.50;;;;;;;16.32;67.42;100975.25;4980869;28;20233;-74
2021/06/23 09:47:40;;;;;;;2.03;1.77;;;;;;;16.90;68.24;100978.16;4982006;28;20528;-74
2021/06/23 09:50:11;;;;;;;2.50;1.93;;;;;;;17.03;65.78;100976.22;4982199;28;20193;-71
2021/06/23 09:52:50;;;;;;;4.07;2.13;;;;;;;16.91;65.61;100974.25;4980931;28;20226;-74
2021/06/23 09:55:17;;;;;;;2.70;2.17;;;;;;;16.84;64.26;100976.75;4977445;28;20229;-73
2021/06/23 09:58:10;;;;;;;2.53;2.03;;;;;;;16.77;64.94;100982.81;4981799;28;20185;-74
2021/06/23 10:01:14;;;;;;;3.23;2.07;;;;;;;16.66;66.28;100973.34;4989703;28;20220;-74
2021/06/23 10:04:05;;;;;;;1.60;1.37;;;;;;;16.99;65.46;100973.34;4987557;28;20197;-74
2021/06/23 10:06:33;;;;;;;1.57;1.30;;;;;;;16.85;64.45;100970.09;4989485;28;20327;-74
2021/06/23 10:09:21;;;;;;;2.83;1.77;;;;;;;17.03;64.30;100968.75;4984498;28;20207;-71
2021/06/23 10:11:49;;;;;;;2.63;1.50;;;;;;;16.83;64.80;100966.88;4991412;28;20196;-74
2021/06/23 10:14:15;;;;;;;1.47;1.33;;;;;;;16.83;64.25;100967.69;4989554;28;20263;-74
2021/06/23 10:16:42;;;;;;;1.97;1.87;;;;;;;17.32;66.87;100975.25;4991272;28;20205;-72
2021/06/23 10:19:08;;;;;;;3.17;1.77;;;;;;;17.42;67.01;100969.28;4987411;28;20239;-74
2021/06/23 10:21:35;;;;;;;2.30;1.67;;;;;;;17.61;63.95;100977.78;4984724;28;20178;-74
2021/06/23 10:24:00;;;;;;;1.70;1.60;;;;;;;17.52;62.06;100968.81;4984377;28;20262;-74
2021/06/23 10:26:27;;;;;;;1.73;1.63;;;;;;;17.33;63.14;100968.56;4991259;28;20181;-74
2021/06/23 10:28:54;;;;;;;2.97;2.13;;;;;;;17.34;63.76;100967.41;4987220;28;20277;-74
2021/06/23 10:31:26;;;;;;;3.37;1.60;;;;;;;16.97;63.25;100970.13;4987395;28;20193;-72
2021/06/23 10:33:54;;;;;;;2.43;1.83;;;;;;;17.00;63.63;100974.16;4979603;28;20216;-73
2021/06/23 10:36:22;;;;;;;2.27;1.93;;;;;;;17.38;64.35;100966.41;4986810;28;20641;-73
2021/06/23 10:38:49;;;;;;;3.57;2.27;;;;;;;17.52;64.34;100969.63;4989931;28;20181;-73
2021/06/23 10:41:15;;;;;;;2.97;1.93;;;;;;;17.80;63.27;100972.53;4986542;28;20204;-73
2021/06/23 10:43:42;;;;;;;2.27;2.07;;;;;;;17.92;63.97;100971.69;4988902;28;20657;-73
2021/06/23 10:46:09;;;;;;;2.50;2.30;;;;;;;17.95;61.48;100965.47;4991016;28;20332;-73
2021/06/23 10:48:54;;;;;;;2.53;2.10;;;;;;;18.21;64.29;100967.81;4989537;28;20177;-73
2021/06/23 10:51:26;;;;;;;2.00;1.80;;;;;;;18.51;62.66;100964.72;4990465;28;20211;-73
2021/06/23 10:53:52;;;;;;;2.93;1.70;;;;;;;18.56;60.70;100958.94;4995132;28;20710;-73
2021/06/23 10:56:41;;;;;;;2.50;1.80;;;;;;;18.77;61.75;100970.63;4992263;28;20189;-74
2021/06/23 10:59:33;;;;;;;2.40;2.17;;;;;;;18.31;60.92;100958.22;4989302;28;20188;-73
2021/06/23 11:02:14;;;;;;;2.03;1.87;;;;;;;18.81;61.81;100970.75;4987757;28;20288;-73
2021/06/23 11:04:57;;;;;;;2.17;1.90;;;;;;;18.98;61.12;100976.75;4993663;28;20181;-73
2021/06/23 11:07:44;;;;;;;4.13;2.03;;;;;;;19.06;61.60;100972.19;4993580;28;20239;-73
2021/06/23 11:10:12;;;;;;;3.57;1.90;;;;;;;19.36;61.87;100988.38;4992855;28;20185;-73
2021/06/23 11:12:48;;;;;;;2.40;1.73;;;;;;;19.07;59.82;100989.63;4994631;28;20181;-73
2021/06/23 11:15:17;;;;;;;4.00;2.67;;;;;;;18.99;58.89;100983.91;4993566;28;20701;-73
2021/06/23 11:17:44;;;;;;;2.57;2.33;;;;;;;18.42;61.58;100979.53;4987259;28;20189;-73
2021/06/23 11:20:18;;;;;;;2.13;1.93;;;;;;;18.59;62.04;100985.91;4993781;28;20192;-73
2021/06/23 11:22:52;;;;;;;3.33;2.27;;;;;;;19.00;61.49;100982.75;4993121;28;20184;-73
2021/06/23 11:25:31;;;;;;;3.00;2.53;;;;;;;18.98;60.02;100985.06;4994775;28;20177;-73
2021/06/23 11:28:09;;;;;;;3.03;2.83;;;;;;;18.78;58.86;100988.03;4994668;28;20188;-73
2021/06/23 11:30:34;;;;;;;3.07;2.77;;;;;;;18.86;58.92;100979.59;4993264;28;20537;-73
2021/06/23 11:33:42;;;;;;;2.83;2.50;;;;;;;18.40;60.50;100972.72;4994435;28;20170;-73
2021/06/23 11:36:10;;;;;;;2.57;2.37;;;;;;;18.39;61.32;100974.69;4994610;28;20518;-73
2021/06/23 11:38:37;;;;;;;2.47;2.00;;;;;;;18.87;61.96;100981.19;4994598;28;20177;-73
2021/06/23 11:41:05;;;;;;;2.60;2.40;;;;;;;19.22;59.32;100984.09;4994158;28;20632;-73
2021/06/23 11:43:31;;;;;;;4.20;2.10;;;;;;;19.31;61.14;100984.72;4994413;28;20215;-73
2021/06/23 11:45:57;;;;;;;2.80;2.10;;;;;;;19.48;59.48;100971.66;4994297;28;20173;-73